Time;durP1;ratioP1;P1;durP2;ratioP2;P2;SDS_P1;SDS_P2;PMS_P1;PMS_P2;Temp;Humidity;BMP_temperature;BMP_pressure;BME280_temperature;BME280_humidity;BME280_pressure;Samples;Min_cycle;Max_cycle;Signal;HPM_P1;HPM_P2
2023/02/06 00:02:03;;;;;;;4.53;2.20;;;3.40;99.90;;;;;;6110109;23;20415;-71
2023/02/06 00:04:30;;;;;;;3.67;2.77;;;3.40;99.90;;;;;;6111011;23;20941;-70
2023/02/06 00:06:57;;;;;;;12.87;3.80;;;3.40;99.90;;;;;;6117928;23;20469;-69
2023/02/06 00:09:24;;;;;;;9.43;3.07;;;3.40;99.90;;;;;;6110094;23;20480;-70
2023/02/06 00:11:52;;;;;;;9.53;2.87;;;3.40;99.90;;;;;;6115342;23;20487;-71
2023/02/06 00:14:19;;;;;;;10.10;3.17;;;3.30;99.90;;;;;;6111023;23;20401;-71
2023/02/06 00:16:46;;;;;;;12.83;3.20;;;3.30;99.90;;;;;;6113000;23;20856;-71
2023/02/06 00:19:14;;;;;;;4.50;3.30;;;3.20;99.90;;;;;;6117593;23;20484;-71
2023/02/06 00:21:44;;;;;;;10.83;3.40;;;3.10;99.90;;;;;;6112990;23;20820;-70
2023/02/06 00:24:10;;;;;;;2.70;2.50;;;3.10;99.90;;;;;;6114786;23;20483;-70
2023/02/06 00:26:37;;;;;;;2.50;1.90;;;3.20;99.90;;;;;;6111204;23;20464;-71
2023/02/06 00:29:06;;;;;;;4.10;2.47;;;3.20;99.90;;;;;;6112405;23;20382;-70
2023/02/06 00:31:33;;;;;;;10.70;3.70;;;3.00;99.90;;;;;;6115947;23;20433;-72
2023/02/06 00:34:00;;;;;;;7.57;3.80;;;2.90;99.90;;;;;;6113856;23;20479;-72
2023/02/06 00:36:28;;;;;;;5.67;3.10;;;2.80;99.90;;;;;;6118363;23;20398;-68
2023/02/06 00:38:55;;;;;;;8.67;2.90;;;2.80;99.90;;;;;;6114365;23;21029;-71
2023/02/06 00:41:22;;;;;;;3.50;2.70;;;2.80;99.90;;;;;;6065229;23;20499;-70
2023/02/06 00:43:49;;;;;;;8.63;3.50;;;2.70;99.90;;;;;;6116441;23;20465;-69
2023/02/06 00:46:18;;;;;;;2.87;2.67;;;2.60;99.90;;;;;;6117032;23;20451;-70
2023/02/06 00:48:45;;;;;;;5.93;3.07;;;2.60;99.90;;;;;;6112814;23;20487;-70
2023/02/06 00:51:12;;;;;;;4.77;2.60;;;2.60;99.90;;;;;;6113612;23;20532;-70
2023/02/06 00:53:41;;;;;;;9.07;3.13;;;2.50;99.90;;;;;;6112919;23;20436;-69
2023/02/06 00:56:08;;;;;;;5.73;2.27;;;2.50;99.90;;;;;;6114217;23;20472;-71
2023/02/06 00:58:35;;;;;;;4.17;2.40;;;2.50;99.90;;;;;;6114701;23;20388;-69
2023/02/06 01:01:02;;;;;;;3.23;2.13;;;2.40;99.90;;;;;;6118304;23;20546;-70
2023/02/06 01:03:33;;;;;;;4.00;3.70;;;2.50;99.90;;;;;;6119235;23;20844;-70
2023/02/06 01:06:00;;;;;;;8.50;2.43;;;2.40;99.90;;;;;;6111594;23;21249;-69
2023/02/06 01:08:27;;;;;;;9.57;1.93;;;2.30;99.90;;;;;;6061913;23;20416;-70
2023/02/06 01:10:54;;;;;;;1.60;1.50;;;2.20;99.90;;;;;;6114613;23;20432;-68
2023/02/06 01:13:21;;;;;;;3.67;1.87;;;2.10;99.90;;;;;;6111267;23;20466;-71
2023/02/06 01:15:48;;;;;;;2.03;1.80;;;2.10;99.90;;;;;;6110356;23;20413;-71
2023/02/06 01:18:15;;;;;;;13.60;3.97;;;2.10;99.90;;;;;;6116008;23;20464;-70
2023/02/06 01:20:43;;;;;;;7.27;4.20;;;2.00;99.90;;;;;;6114633;23;20425;-71
2023/02/06 01:23:11;;;;;;;7.83;2.20;;;2.00;99.90;;;;;;6113991;23;20398;-71
2023/02/06 01:25:38;;;;;;;3.57;1.80;;;2.10;99.90;;;;;;6115771;23;20416;-68
2023/02/06 01:28:05;;;;;;;3.87;2.10;;;2.10;99.90;;;;;;6114206;23;20391;-70
2023/02/06 01:30:32;;;;;;;7.03;3.33;;;2.00;99.90;;;;;;6115949;23;20390;-71
2023/02/06 01:32:59;;;;;;;6.27;2.63;;;2.10;99.90;;;;;;6116861;23;20428;-71
2023/02/06 01:35:28;;;;;;;2.20;1.77;;;2.20;99.90;;;;;;6116822;23;20470;-72
2023/02/06 01:37:56;;;;;;;16.57;2.50;;;2.10;99.90;;;;;;6113770;23;20416;-72
2023/02/06 01:40:24;;;;;;;2.87;1.90;;;2.00;99.90;;;;;;6113832;23;21147;-70
2023/02/06 01:42:51;;;;;;;1.43;1.33;;;2.00;99.90;;;;;;6062473;23;20460;-71
2023/02/06 01:45:41;;;;;;;3.20;1.70;;;2.10;99.90;;;;;;6115816;23;20929;-71
2023/02/06 01:48:12;;;;;;;5.20;2.43;;;2.00;99.90;;;;;;6111029;23;20811;-71
2023/02/06 01:50:43;;;;;;;4.13;1.17;;;2.00;99.90;;;;;;6115409;23;20401;-71
2023/02/06 01:53:14;;;;;;;6.83;1.93;;;2.00;99.90;;;;;;6117249;23;20393;-70
2023/02/06 01:55:46;;;;;;;3.97;1.90;;;2.00;99.90;;;;;;6116469;23;20885;-71
2023/02/06 01:58:18;;;;;;;2.30;1.97;;;1.90;99.90;;;;;;6116562;23;20372;-69
2023/02/06 02:00:46;;;;;;;15.63;3.53;;;1.80;99.90;;;;;;6114956;23;20437;-70
2023/02/06 02:03:13;;;;;;;3.57;2.17;;;1.80;99.90;;;;;;6114540;23;20585;-71
2023/02/06 02:05:41;;;;;;;6.13;3.60;;;1.80;99.90;;;;;;6115378;23;20752;-69
2023/02/06 02:08:16;;;;;;;12.13;2.10;;;1.80;99.90;;;;;;6085777;23;20468;-70
2023/02/06 02:10:43;;;;;;;1.30;1.20;;;1.70;99.90;;;;;;6126189;23;20860;-69
2023/02/06 02:13:10;;;;;;;14.63;2.63;;;1.60;99.90;;;;;;6128571;23;21108;-71
2023/02/06 02:15:44;;;;;;;5.20;2.13;;;1.60;99.90;;;;;;6113931;23;20386;-71
2023/02/06 02:18:25;;;;;;;9.90;2.03;;;1.70;99.90;;;;;;6117930;23;20399;-71
2023/02/06 02:21:27;;;;;;;2.10;1.90;;;1.70;99.90;;;;;;6117653;23;20531;-70
2023/02/06 02:24:04;;;;;;;3.00;2.83;;;1.70;99.90;;;;;;6111963;23;21002;-70
2023/02/06 02:27:00;;;;;;;5.23;1.50;;;1.70;99.90;;;;;;6115266;23;20448;-69
2023/02/06 02:30:11;;;;;;;5.87;2.00;;;1.70;99.90;;;;;;6098480;23;20425;-71
2023/02/06 02:33:00;;;;;;;10.10;3.37;;;1.70;99.90;;;;;;6117266;23;20463;-71
2023/02/06 02:35:42;;;;;;;10.40;3.00;;;1.60;99.90;;;;;;6119060;23;21209;-71
2023/02/06 02:38:18;;;;;;;5.77;2.83;;;1.50;99.90;;;;;;6115506;23;20393;-71
2023/02/06 02:40:50;;;;;;;10.30;6.03;;;1.50;99.90;;;;;;6116872;23;20459;-70
2023/02/06 02:43:27;;;;;;;4.93;2.77;;;1.50;99.90;;;;;;6116743;23;20632;-71
2023/02/06 02:45:58;;;;;;;2.07;1.87;;;1.60;99.90;;;;;;6111398;23;20403;-71
2023/02/06 02:48:28;;;;;;;5.77;1.73;;;1.70;99.90;;;;;;6114981;23;20413;-71
2023/02/06 02:50:58;;;;;;;7.20;2.00;;;1.70;99.90;;;;;;6113892;23;20787;-71
2023/02/06 02:53:26;;;;;;;5.07;3.00;;;1.60;99.90;;;;;;6117227;23;20409;-69
2023/02/06 02:55:52;;;;;;;11.33;3.60;;;1.70;99.90;;;;;;6069407;23;20523;-70
2023/02/06 02:58:23;;;;;;;2.40;2.20;;;1.60;99.90;;;;;;6117805;23;20424;-71
2023/02/06 03:00:56;;;;;;;2.63;1.60;;;1.60;99.90;;;;;;6112592;23;20462;-71
2023/02/06 03:03:27;;;;;;;2.67;1.70;;;1.60;99.90;;;;;;6115584;23;20486;-71
2023/02/06 03:06:13;;;;;;;10.40;2.53;;;1.30;99.90;;;;;;6116154;23;20433;-71
2023/02/06 03:08:49;;;;;;;2.23;1.67;;;1.30;99.90;;;;;;6115696;23;20576;-69
2023/02/06 03:11:19;;;;;;;5.37;1.87;;;1.30;99.90;;;;;;6114275;23;20431;-70
2023/02/06 03:13:52;;;;;;;6.17;2.70;;;1.20;99.90;;;;;;6115986;23;21131;-72
2023/02/06 03:16:24;;;;;;;3.70;3.13;;;1.20;99.90;;;;;;6112422;23;20471;-71
2023/02/06 03:18:57;;;;;;;8.30;3.10;;;1.20;99.90;;;;;;6113910;23;20431;-71
2023/02/06 03:21:28;;;;;;;3.27;1.93;;;1.30;99.90;;;;;;6114528;23;20452;-69
2023/02/06 03:24:01;;;;;;;9.30;2.20;;;1.20;99.90;;;;;;6115568;23;20427;-70
2023/02/06 03:26:29;;;;;;;14.33;3.13;;;1.10;99.90;;;;;;6112857;23;20393;-70
2023/02/06 03:29:01;;;;;;;3.27;2.77;;;1.00;99.90;;;;;;6113425;23;20416;-70
2023/02/06 03:31:33;;;;;;;5.13;1.40;;;1.00;99.90;;;;;;6114262;23;20487;-70
2023/02/06 03:34:05;;;;;;;6.60;2.03;;;1.10;99.90;;;;;;6113669;23;20402;-70
2023/02/06 03:36:34;;;;;;;11.93;1.67;;;1.10;99.90;;;;;;6115472;23;20476;-71
2023/02/06 03:39:01;;;;;;;35.03;3.87;;;1.10;99.90;;;;;;6115420;23;20475;-72
2023/02/06 03:41:33;;;;;;;2.93;2.20;;;1.10;99.90;;;;;;6117946;23;20538;-71
2023/02/06 03:44:06;;;;;;;4.10;1.50;;;1.20;99.90;;;;;;6115003;23;20429;-71
2023/02/06 03:46:36;;;;;;;2.70;1.73;;;1.20;99.90;;;;;;6110673;23;20375;-70
2023/02/06 03:49:07;;;;;;;10.47;2.10;;;1.10;99.90;;;;;;6119107;23;20452;-68
2023/02/06 03:51:41;;;;;;;3.60;2.67;;;1.00;99.90;;;;;;6118418;23;20429;-70
2023/02/06 03:54:10;;;;;;;4.93;2.97;;;0.90;99.90;;;;;;6115448;23;20433;-70
2023/02/06 03:56:43;;;;;;;14.63;3.43;;;0.80;99.90;;;;;;6115818;23;20418;-72
2023/02/06 03:59:10;;;;;;;3.63;2.30;;;0.80;99.90;;;;;;6113509;23;20467;-69
2023/02/06 04:01:41;;;;;;;27.70;2.60;;;0.80;99.90;;;;;;6106433;23;20451;-71
2023/02/06 04:04:08;;;;;;;6.60;3.00;;;0.80;99.90;;;;;;6112326;23;20416;-71
2023/02/06 04:06:37;;;;;;;11.87;4.17;;;1.00;99.90;;;;;;6118452;23;20497;-70
2023/02/06 04:09:05;;;;;;;5.37;2.00;;;1.10;99.90;;;;;;6115978;23;20407;-69
2023/02/06 04:11:32;;;;;;;4.93;1.60;;;1.10;99.90;;;;;;6114689;23;20404;-71
2023/02/06 04:13:59;;;;;;;10.30;3.83;;;1.10;99.90;;;;;;6116714;23;20418;-69
2023/02/06 04:16:26;;;;;;;3.70;3.00;;;1.00;99.90;;;;;;6113348;23;20411;-70
2023/02/06 04:18:53;;;;;;;14.13;2.90;;;0.90;99.90;;;;;;6113925;23;20439;-71
2023/02/06 04:21:20;;;;;;;1.70;1.33;;;0.90;99.90;;;;;;6112843;23;21100;-71
2023/02/06 04:23:48;;;;;;;2.83;2.33;;;0.90;99.90;;;;;;6113742;23;20428;-71
2023/02/06 04:26:15;;;;;;;13.97;3.90;;;1.00;99.90;;;;;;6114848;23;20435;-71
2023/02/06 04:28:42;;;;;;;2.20;1.77;;;1.10;99.90;;;;;;6112243;23;20506;-71
2023/02/06 04:31:09;;;;;;;8.57;2.50;;;1.00;99.90;;;;;;6108329;23;20551;-71
2023/02/06 04:33:36;;;;;;;4.53;3.57;;;1.00;99.90;;;;;;6112304;23;20416;-71
2023/02/06 04:36:03;;;;;;;19.10;3.93;;;1.00;99.90;;;;;;6113428;23;20504;-71
2023/02/06 04:38:30;;;;;;;1.77;1.57;;;0.90;99.90;;;;;;6115144;23;20444;-71
2023/02/06 04:41:03;;;;;;;4.33;2.60;;;0.90;99.90;;;;;;6116740;23;20451;-70
2023/02/06 04:43:31;;;;;;;3.20;2.80;;;0.90;99.90;;;;;;6116034;23;20398;-70
2023/02/06 04:45:58;;;;;;;9.23;2.37;;;0.90;99.90;;;;;;6121069;23;20423;-70
2023/02/06 04:48:27;;;;;;;9.43;2.60;;;0.80;99.90;;;;;;6118158;23;20415;-71
2023/02/06 04:50:54;;;;;;;2.97;2.13;;;0.90;99.90;;;;;;6115266;23;20511;-70
2023/02/06 04:53:21;;;;;;;4.60;4.20;;;1.00;99.90;;;;;;6118946;23;20394;-70
2023/02/06 04:55:48;;;;;;;3.30;2.40;;;0.90;99.90;;;;;;6120385;23;20752;-70
2023/02/06 04:58:16;;;;;;;5.90;3.03;;;1.00;99.90;;;;;;6117854;23;20420;-70
2023/02/06 05:00:43;;;;;;;7.13;2.13;;;0.90;99.90;;;;;;6110666;23;20478;-70
2023/02/06 05:03:10;;;;;;;3.57;2.37;;;0.80;99.90;;;;;;6113637;23;20390;-70
2023/02/06 05:05:37;;;;;;;6.70;2.03;;;0.90;99.90;;;;;;6114584;23;21103;-70
2023/02/06 05:08:04;;;;;;;3.73;3.43;;;0.90;99.90;;;;;;6109262;23;20506;-70
2023/02/06 05:10:31;;;;;;;4.53;2.60;;;0.90;99.90;;;;;;6112164;23;20468;-70
2023/02/06 05:12:58;;;;;;;4.60;2.50;;;0.90;99.90;;;;;;6113900;23;20382;-70
2023/02/06 05:15:26;;;;;;;16.67;3.10;;;1.00;99.90;;;;;;6114735;23;20497;-69
2023/02/06 05:17:54;;;;;;;10.97;4.00;;;1.10;99.90;;;;;;6114060;23;20602;-70
2023/02/06 05:20:21;;;;;;;5.53;2.77;;;1.20;99.90;;;;;;6117264;23;21071;-69
2023/02/06 05:22:48;;;;;;;19.00;2.77;;;1.10;99.90;;;;;;6112955;23;20964;-70
2023/02/06 05:25:15;;;;;;;3.93;1.67;;;1.20;99.90;;;;;;6108133;23;20422;-71
2023/02/06 05:27:42;;;;;;;2.43;2.23;;;1.20;99.90;;;;;;6110917;23;20467;-70
2023/02/06 05:30:10;;;;;;;3.73;2.53;;;1.30;99.90;;;;;;6109072;23;20492;-69
2023/02/06 05:32:39;;;;;;;10.87;3.13;;;1.40;99.90;;;;;;6057791;23;20426;-71
2023/02/06 05:35:06;;;;;;;4.80;2.43;;;1.50;99.90;;;;;;6111710;23;20411;-71
2023/02/06 05:37:34;;;;;;;4.90;2.33;;;1.50;99.90;;;;;;6111654;23;20527;-70
2023/02/06 05:40:01;;;;;;;4.03;3.60;;;1.60;99.90;;;;;;6114403;23;20739;-70
2023/02/06 05:42:28;;;;;;;5.30;2.47;;;1.60;99.90;;;;;;6114718;23;20832;-71
2023/02/06 05:44:55;;;;;;;5.57;3.87;;;1.60;99.90;;;;;;6112948;23;20413;-71
2023/02/06 05:47:22;;;;;;;6.53;4.30;;;1.60;99.90;;;;;;6110429;23;20417;-71
2023/02/06 05:49:50;;;;;;;9.07;3.23;;;1.70;99.90;;;;;;6114347;23;20476;-69
2023/02/06 05:52:18;;;;;;;2.50;2.20;;;1.70;99.90;;;;;;6116236;23;20408;-71
2023/02/06 05:54:45;;;;;;;3.80;2.60;;;1.60;99.90;;;;;;6111961;23;20436;-71
2023/02/06 05:57:12;;;;;;;5.07;3.13;;;1.60;99.90;;;;;;6111717;23;20416;-71
2023/02/06 05:59:39;;;;;;;7.90;2.50;;;1.70;99.90;;;;;;6111413;23;20526;-70
2023/02/06 06:02:07;;;;;;;16.10;4.40;;;1.70;99.90;;;;;;6113688;23;20450;-69
2023/02/06 06:04:34;;;;;;;10.90;7.00;;;1.80;99.90;;;;;;6114764;23;20389;-70
2023/02/06 06:07:05;;;;;;;7.00;3.43;;;1.90;99.90;;;;;;6113897;23;20412;-69
2023/02/06 06:09:32;;;;;;;28.63;4.20;;;1.90;99.90;;;;;;6110962;23;20393;-71
2023/02/06 06:11:59;;;;;;;10.23;3.60;;;1.80;99.90;;;;;;6107040;23;20432;-69
2023/02/06 06:14:27;;;;;;;24.17;5.63;;;1.80;99.90;;;;;;6113633;23;20503;-69
2023/02/06 06:16:54;;;;;;;12.70;3.57;;;1.80;99.90;;;;;;6115626;23;20396;-70
2023/02/06 06:19:21;;;;;;;6.47;3.10;;;1.80;99.90;;;;;;6114860;23;20454;-70
2023/02/06 06:21:48;;;;;;;3.73;2.33;;;1.70;99.90;;;;;;6111475;23;20480;-71
2023/02/06 06:24:16;;;;;;;28.63;4.17;;;1.80;99.90;;;;;;6112248;23;20892;-70
2023/02/06 06:26:44;;;;;;;8.07;4.03;;;2.00;99.90;;;;;;6114222;23;20697;-71
2023/02/06 06:29:11;;;;;;;36.80;5.03;;;2.10;99.90;;;;;;6112167;23;20423;-71
2023/02/06 06:31:38;;;;;;;11.47;4.90;;;2.20;99.90;;;;;;6117484;23;20467;-71
2023/02/06 06:34:05;;;;;;;13.43;5.40;;;2.30;99.90;;;;;;6120421;23;20445;-71
2023/02/06 06:36:33;;;;;;;8.63;4.70;;;2.30;99.90;;;;;;6121701;23;20383;-68
2023/02/06 06:39:00;;;;;;;8.43;5.33;;;2.30;99.90;;;;;;6072643;23;20412;-70
2023/02/06 06:41:28;;;;;;;32.07;5.50;;;2.20;99.90;;;;;;6119108;23;20452;-69
2023/02/06 06:43:59;;;;;;;11.53;4.97;;;2.30;99.90;;;;;;6118465;23;20411;-70
2023/02/06 06:46:26;;;;;;;8.20;6.17;;;2.40;99.90;;;;;;6120378;23;20406;-69
2023/02/06 06:48:53;;;;;;;14.57;6.30;;;2.40;99.90;;;;;;6119176;23;20472;-69
2023/02/06 06:51:20;;;;;;;25.43;7.67;;;2.40;99.90;;;;;;6118554;23;20467;-70
2023/02/06 06:53:47;;;;;;;25.63;5.87;;;2.50;99.90;;;;;;6120503;23;20465;-69
2023/02/06 06:56:15;;;;;;;31.73;8.40;;;2.60;99.90;;;;;;6114275;23;20418;-70
2023/02/06 06:58:43;;;;;;;20.80;6.77;;;2.50;99.90;;;;;;6119050;23;20447;-69
2023/02/06 07:01:10;;;;;;;8.30;5.50;;;2.50;99.90;;;;;;6120566;23;20443;-69
2023/02/06 07:03:37;;;;;;;31.77;8.57;;;2.50;99.90;;;;;;6132020;23;20377;-69
2023/02/06 07:06:04;;;;;;;24.07;6.47;;;2.60;99.90;;;;;;6121667;23;20406;-72
2023/02/06 07:08:34;;;;;;;20.37;7.43;;;2.70;99.90;;;;;;6120665;23;20386;-70
2023/02/06 07:11:01;;;;;;;16.10;7.63;;;2.70;99.90;;;;;;6121414;23;20452;-69
2023/02/06 07:13:28;;;;;;;29.70;11.40;;;2.70;99.90;;;;;;6116416;23;20466;-69
2023/02/06 07:15:57;;;;;;;35.87;11.73;;;2.60;99.90;;;;;;6119223;23;20494;-69
2023/02/06 07:18:23;;;;;;;13.80;7.10;;;2.50;99.90;;;;;;6119889;23;20471;-69
2023/02/06 07:20:50;;;;;;;12.43;4.43;;;2.50;99.90;;;;;;6120182;23;20953;-69
2023/02/06 07:23:17;;;;;;;17.60;5.77;;;2.60;99.90;;;;;;6119541;23;20786;-70
2023/02/06 07:25:44;;;;;;;22.17;9.40;;;2.60;99.90;;;;;;6092630;23;20375;-70
2023/02/06 07:28:12;;;;;;;24.43;7.07;;;2.60;99.90;;;;;;6118539;23;20717;-69
2023/02/06 07:30:39;;;;;;;37.47;6.27;;;2.70;99.90;;;;;;6119948;23;20474;-70
2023/02/06 07:33:08;;;;;;;13.43;5.90;;;2.80;99.90;;;;;;6121143;23;20458;-69
2023/02/06 07:35:35;;;;;;;10.10;4.40;;;2.70;99.90;;;;;;6123285;23;20405;-70
2023/02/06 07:38:01;;;;;;;11.30;4.93;;;2.70;99.90;;;;;;6121769;23;20445;-69
2023/02/06 07:40:28;;;;;;;9.57;4.00;;;2.80;99.90;;;;;;6120115;23;20955;-70
2023/02/06 07:42:55;;;;;;;10.23;5.77;;;2.80;99.90;;;;;;6119624;23;20419;-70
2023/02/06 07:45:23;;;;;;;13.40;5.27;;;2.80;99.90;;;;;;6118337;23;20944;-69
2023/02/06 07:47:50;;;;;;;19.73;4.60;;;3.00;99.90;;;;;;6119960;23;20410;-70
2023/02/06 07:50:19;;;;;;;6.07;3.57;;;3.00;99.90;;;;;;6120149;23;20423;-70
2023/02/06 07:52:46;;;;;;;5.27;3.17;;;3.00;99.90;;;;;;6117536;23;20430;-70
2023/02/06 07:55:14;;;;;;;19.73;6.47;;;3.10;99.90;;;;;;6119494;23;20388;-70
2023/02/06 07:57:41;;;;;;;22.50;7.73;;;3.20;99.90;;;;;;6119269;23;20392;-70
2023/02/06 08:00:09;;;;;;;18.80;5.43;;;3.30;99.90;;;;;;6118780;23;20391;-70
2023/02/06 08:02:36;;;;;;;14.27;5.13;;;3.30;99.90;;;;;;6063955;23;20436;-69
2023/02/06 08:05:03;;;;;;;20.97;4.10;;;3.30;99.90;;;;;;6114660;23;20391;-70
2023/02/06 08:07:31;;;;;;;25.57;5.50;;;3.30;99.90;;;;;;6119921;23;20413;-70
2023/02/06 08:09:58;;;;;;;10.77;4.70;;;3.30;99.90;;;;;;6118876;23;20879;-70
2023/02/06 08:12:26;;;;;;;25.07;6.00;;;3.20;99.90;;;;;;6118934;23;20909;-69
2023/02/06 08:14:53;;;;;;;5.70;3.80;;;3.30;99.90;;;;;;6117775;23;21006;-70
2023/02/06 08:17:20;;;;;;;25.87;6.70;;;3.40;99.90;;;;;;6120241;23;20383;-69
2023/02/06 08:19:48;;;;;;;20.43;9.53;;;3.40;99.90;;;;;;6120804;23;20421;-70
2023/02/06 08:22:15;;;;;;;16.73;6.53;;;3.40;99.90;;;;;;6119182;23;20496;-69
2023/02/06 08:24:43;;;;;;;13.40;4.97;;;3.40;99.90;;;;;;6118620;23;20508;-70
2023/02/06 08:27:11;;;;;;;19.57;5.87;;;3.40;99.90;;;;;;6122544;23;20388;-71
2023/02/06 08:29:41;;;;;;;4.90;4.00;;;3.40;99.90;;;;;;6121180;23;20694;-71
2023/02/06 08:32:08;;;;;;;13.57;6.37;;;3.50;99.90;;;;;;6123127;23;20404;-70
2023/02/06 08:34:35;;;;;;;6.60;2.87;;;3.60;99.90;;;;;;6117814;23;20414;-70
2023/02/06 08:37:02;;;;;;;10.23;5.80;;;3.60;99.90;;;;;;6116841;23;20443;-70
2023/02/06 08:39:30;;;;;;;13.23;4.67;;;3.60;99.90;;;;;;6122583;23;20490;-71
2023/02/06 08:41:58;;;;;;;17.70;5.30;;;3.60;99.90;;;;;;6115895;23;20932;-70
2023/02/06 08:44:25;;;;;;;12.70;6.37;;;3.50;99.90;;;;;;6121132;23;20416;-70
2023/02/06 08:46:53;;;;;;;3.70;3.37;;;3.60;99.90;;;;;;6123412;23;20869;-70
2023/02/06 08:49:23;;;;;;;11.73;5.87;;;3.70;99.90;;;;;;6122336;23;20841;-70
2023/02/06 08:51:50;;;;;;;15.23;6.00;;;3.80;99.90;;;;;;6120251;23;20433;-71
2023/02/06 08:54:20;;;;;;;9.90;3.57;;;3.70;99.90;;;;;;6120512;23;20446;-70
2023/02/06 08:56:48;;;;;;;10.40;3.73;;;3.50;99.90;;;;;;6117979;23;20487;-70
2023/02/06 08:59:18;;;;;;;18.77;3.67;;;3.40;99.90;;;;;;6120889;23;20404;-71
2023/02/06 09:01:47;;;;;;;8.53;3.97;;;3.50;99.90;;;;;;6119980;23;20513;-70
2023/02/06 09:04:16;;;;;;;15.53;5.67;;;3.50;99.90;;;;;;6118029;23;20504;-69
2023/02/06 09:06:45;;;;;;;8.83;3.90;;;3.30;99.90;;;;;;6121239;23;20410;-70
2023/02/06 09:09:15;;;;;;;15.20;6.53;;;3.40;99.90;;;;;;6120906;23;20413;-71
2023/02/06 09:11:43;;;;;;;6.87;4.77;;;3.50;99.90;;;;;;6119742;23;20458;-71
2023/02/06 09:14:14;;;;;;;7.17;3.30;;;3.50;99.90;;;;;;6120106;23;20422;-71
2023/02/06 09:16:42;;;;;;;3.80;1.97;;;3.50;99.90;;;;;;6120671;23;20926;-70
2023/02/06 09:19:11;;;;;;;4.00;2.60;;;3.40;99.90;;;;;;6121583;23;20425;-70
2023/02/06 09:21:38;;;;;;;4.83;2.67;;;3.10;99.90;;;;;;6122072;23;20470;-71
2023/02/06 09:24:07;;;;;;;3.57;3.20;;;3.10;99.90;;;;;;6119911;23;20506;-70
2023/02/06 09:26:37;;;;;;;10.40;4.70;;;3.40;99.90;;;;;;6124664;23;20409;-70
2023/02/06 09:29:06;;;;;;;7.00;3.47;;;3.40;99.90;;;;;;6121808;23;20388;-71
2023/02/06 09:31:37;;;;;;;15.00;3.23;;;3.50;99.90;;;;;;6119842;23;20448;-70
2023/02/06 09:34:06;;;;;;;5.37;3.23;;;3.60;99.90;;;;;;6119702;23;20630;-70
2023/02/06 09:36:35;;;;;;;11.70;3.30;;;3.70;99.90;;;;;;6118001;23;20489;-70
2023/02/06 09:39:06;;;;;;;7.80;3.27;;;3.70;99.90;;;;;;6122035;23;20475;-68
2023/02/06 09:41:39;;;;;;;5.03;3.37;;;3.70;99.90;;;;;;6121504;23;20996;-70
2023/02/06 09:44:16;;;;;;;2.60;2.20;;;3.90;99.90;;;;;;6117318;23;20433;-70
2023/02/06 09:46:49;;;;;;;7.00;2.83;;;4.00;99.90;;;;;;6121673;23;20870;-70
2023/02/06 09:49:22;;;;;;;26.23;4.07;;;4.20;99.90;;;;;;6119325;23;20423;-69
2023/02/06 09:52:05;;;;;;;6.50;3.87;;;4.20;99.90;;;;;;6120546;23;21008;-70
2023/02/06 09:54:41;;;;;;;6.73;3.20;;;4.40;99.90;;;;;;6118852;23;20567;-69
2023/02/06 09:57:14;;;;;;;12.97;3.60;;;4.60;99.90;;;;;;6122059;23;20790;-69
2023/02/06 09:59:45;;;;;;;6.43;3.57;;;4.70;99.90;;;;;;6120221;23;20481;-69
2023/02/06 10:02:30;;;;;;;4.40;3.00;;;4.70;99.90;;;;;;6118825;23;20482;-70
2023/02/06 10:05:06;;;;;;;11.67;3.30;;;4.70;99.90;;;;;;6118812;23;20441;-70
2023/02/06 10:07:54;;;;;;;12.23;5.33;;;4.90;99.90;;;;;;6121049;23;20466;-70
2023/02/06 10:10:29;;;;;;;12.90;5.53;;;5.10;99.90;;;;;;6119424;23;20405;-70
2023/02/06 10:13:01;;;;;;;10.83;5.23;;;5.20;99.90;;;;;;6119068;23;20361;-70
2023/02/06 10:15:35;;;;;;;3.83;2.33;;;5.40;99.90;;;;;;6118798;23;20734;-70
2023/02/06 10:18:09;;;;;;;21.60;4.13;;;5.00;99.90;;;;;;6119723;23;20483;-70
2023/02/06 10:20:43;;;;;;;6.00;3.50;;;4.80;99.90;;;;;;6119259;23;20504;-69
2023/02/06 10:23:15;;;;;;;11.03;3.53;;;5.10;99.90;;;;;;6123340;23;20961;-70
2023/02/06 10:25:48;;;;;;;15.13;3.67;;;5.50;99.90;;;;;;6126679;23;20399;-70
2023/02/06 10:28:27;;;;;;;7.77;2.83;;;5.80;99.90;;;;;;6069144;23;20882;-70
2023/02/06 10:31:22;;;;;;;8.30;4.83;;;5.90;99.90;;;;;;6120289;23;20438;-71
2023/02/06 10:33:56;;;;;;;23.07;5.10;;;5.90;99.90;;;;;;6119911;23;20472;-70
2023/02/06 10:36:41;;;;;;;5.73;3.30;;;5.70;99.90;;;;;;6120128;23;20476;-70
2023/02/06 10:39:31;;;;;;;14.13;3.67;;;5.60;99.90;;;;;;6119091;23;20820;-70
2023/02/06 10:42:07;;;;;;;12.50;4.30;;;5.50;99.90;;;;;;6120993;23;20473;-70
2023/02/06 10:44:41;;;;;;;5.10;3.20;;;5.40;99.90;;;;;;6120248;23;20751;-71
2023/02/06 10:47:21;;;;;;;15.20;5.23;;;5.50;99.90;;;;;;6119386;23;20365;-70
2023/02/06 10:49:54;;;;;;;11.23;3.93;;;5.40;99.90;;;;;;6119101;23;20731;-70
2023/02/06 10:52:27;;;;;;;16.33;4.70;;;5.50;99.90;;;;;;6120243;23;20427;-70
2023/02/06 10:54:57;;;;;;;12.87;5.60;;;5.70;99.90;;;;;;6120516;23;20993;-71
2023/02/06 10:57:27;;;;;;;8.33;4.03;;;5.60;99.90;;;;;;6121856;23;20420;-70
2023/02/06 10:59:59;;;;;;;6.43;4.53;;;5.60;99.90;;;;;;6119618;23;20417;-68
2023/02/06 11:02:30;;;;;;;40.27;17.00;;;5.70;99.90;;;;;;6115916;23;20486;-70
2023/02/06 11:05:03;;;;;;;12.67;6.40;;;5.90;99.90;;;;;;6120016;23;20417;-69
2023/02/06 11:07:35;;;;;;;8.80;4.00;;;5.90;99.90;;;;;;6119135;23;20377;-70
2023/02/06 11:10:04;;;;;;;12.10;5.70;;;6.00;99.90;;;;;;6120650;23;20411;-69
2023/02/06 11:12:35;;;;;;;13.07;5.07;;;6.10;99.90;;;;;;6117145;23;20398;-69
2023/02/06 11:15:07;;;;;;;12.20;5.70;;;6.20;99.90;;;;;;6119049;23;20482;-69
2023/02/06 11:17:36;;;;;;;12.60;7.60;;;6.30;99.90;;;;;;6121537;23;20462;-70
2023/02/06 11:20:19;;;;;;;6.60;4.37;;;6.30;99.90;;;;;;6117311;23;20416;-71
2023/02/06 11:22:47;;;;;;;11.50;4.67;;;6.30;99.90;;;;;;6117068;23;20450;-70
2023/02/06 11:25:28;;;;;;;9.43;5.57;;;6.30;99.90;;;;;;6120095;23;20401;-69
2023/02/06 11:27:56;;;;;;;8.77;5.50;;;6.30;99.90;;;;;;6116437;23;20395;-68
2023/02/06 11:30:33;;;;;;;9.60;5.40;;;6.40;99.90;;;;;;6119570;23;20426;-70
2023/02/06 11:33:04;;;;;;;9.07;5.63;;;6.50;99.90;;;;;;6114398;23;20392;-71
2023/02/06 11:35:33;;;;;;;9.00;4.80;;;6.20;99.90;;;;;;6118829;23;20403;-71
2023/02/06 11:38:16;;;;;;;13.10;4.70;;;6.00;99.90;;;;;;6091260;23;20456;-69
2023/02/06 11:40:53;;;;;;;7.93;2.83;;;6.00;99.90;;;;;;6118156;23;20389;-68
2023/02/06 11:43:22;;;;;;;4.90;3.90;;;6.20;99.90;;;;;;6120433;23;21193;-70
2023/02/06 11:45:54;;;;;;;9.80;4.30;;;6.20;99.90;;;;;;6120328;23;20377;-69
2023/02/06 11:48:39;;;;;;;8.97;5.37;;;6.40;99.90;;;;;;6122508;23;20366;-70
2023/02/06 11:51:07;;;;;;;7.97;5.40;;;6.40;99.90;;;;;;6119489;23;20409;-69
2023/02/06 11:53:37;;;;;;;4.13;3.47;;;6.30;99.90;;;;;;6118198;23;20414;-70
2023/02/06 11:56:15;;;;;;;4.23;3.40;;;6.30;99.90;;;;;;6128827;23;20418;-70
2023/02/06 11:58:43;;;;;;;4.40;3.50;;;6.20;99.90;;;;;;6129033;23;20853;-70
2023/02/06 12:01:21;;;;;;;4.50;3.37;;;6.10;99.90;;;;;;6121732;23;20424;-70
2023/02/06 12:03:57;;;;;;;4.97;4.47;;;6.00;99.90;;;;;;6116900;23;20410;-70
2023/02/06 12:06:30;;;;;;;11.97;7.37;;;6.10;99.90;;;;;;6122576;23;20848;-70
2023/02/06 12:09:00;;;;;;;5.67;3.80;;;6.10;99.90;;;;;;6121627;23;20421;-70
2023/02/06 12:11:33;;;;;;;8.63;5.30;;;6.10;99.90;;;;;;6120786;23;20439;-69
2023/02/06 12:14:06;;;;;;;12.73;6.30;;;6.10;99.90;;;;;;6118317;23;20394;-70
2023/02/06 12:16:39;;;;;;;10.20;3.90;;;6.10;99.90;;;;;;6121871;23;20465;-71
2023/02/06 12:19:14;;;;;;;4.50;4.00;;;6.10;99.90;;;;;;6136405;23;20385;-70
2023/02/06 12:21:45;;;;;;;5.77;3.50;;;6.00;99.90;;;;;;6118939;23;20436;-70
2023/02/06 12:24:24;;;;;;;8.57;6.37;;;6.00;99.90;;;;;;6121075;23;20421;-70
2023/02/06 12:26:52;;;;;;;4.60;3.97;;;6.10;99.90;;;;;;6121190;23;20381;-70
2023/02/06 12:29:26;;;;;;;18.97;7.23;;;6.20;99.90;;;;;;6119785;23;20757;-70
2023/02/06 12:31:59;;;;;;;7.57;5.57;;;6.30;99.90;;;;;;6119296;23;20482;-70
2023/02/06 12:34:30;;;;;;;6.90;4.70;;;6.30;99.90;;;;;;6122059;23;20397;-71
2023/02/06 12:37:09;;;;;;;8.33;5.20;;;6.40;99.90;;;;;;6119894;23;20402;-71
2023/02/06 12:39:38;;;;;;;17.63;5.07;;;6.40;99.90;;;;;;6119208;23;20468;-70
2023/02/06 12:42:20;;;;;;;16.40;5.30;;;6.60;99.90;;;;;;6121514;23;20408;-70
2023/02/06 12:44:54;;;;;;;11.20;4.90;;;6.80;99.90;;;;;;6119520;23;20559;-71
2023/02/06 12:47:29;;;;;;;10.20;5.60;;;6.90;99.90;;;;;;6121549;23;20377;-70
2023/02/06 12:50:04;;;;;;;9.37;3.70;;;6.80;99.90;;;;;;6122231;23;20462;-71
2023/02/06 12:52:37;;;;;;;6.50;5.03;;;6.90;99.90;;;;;;6121577;23;21165;-71
2023/02/06 12:55:19;;;;;;;8.83;5.63;;;6.90;99.90;;;;;;6121761;23;20429;-70
2023/02/06 12:57:47;;;;;;;9.10;3.43;;;6.90;99.90;;;;;;6120310;23;20492;-70
2023/02/06 13:00:47;;;;;;;6.83;4.37;;;7.10;99.90;;;;;;6069800;23;20472;-70
2023/02/06 13:03:28;;;;;;;5.13;3.30;;;7.40;99.90;;;;;;6121919;23;20409;-70
2023/02/06 13:06:01;;;;;;;20.93;3.73;;;7.60;99.90;;;;;;6120482;23;20444;-69
2023/02/06 13:08:39;;;;;;;4.83;2.90;;;7.80;99.90;;;;;;6121070;23;20370;-69
2023/02/06 13:11:14;;;;;;;17.87;6.13;;;8.40;99.90;;;;;;6121738;23;20406;-70